createdAt,value
2022-12-09T00:01:27.965Z,8.07
2022-12-09T00:03:56.160Z,7.13
2022-12-09T00:06:25.564Z,8.20
2022-12-09T00:08:52.944Z,8.70
2022-12-09T00:11:20.855Z,7.10
2022-12-09T00:13:52.815Z,8.47
2022-12-09T00:16:19.815Z,9.53
2022-12-09T00:18:46.583Z,6.37
2022-12-09T00:21:18.984Z,7.40
2022-12-09T00:23:45.826Z,9.33
2022-12-09T00:26:13.135Z,7.63
2022-12-09T00:28:40.510Z,8.40
2022-12-09T00:31:08.039Z,6.33
2022-12-09T00:33:35.256Z,8.30
2022-12-09T00:36:10.685Z,8.07
2022-12-09T00:38:37.893Z,7.37
2022-12-09T00:41:05.602Z,7.53
2022-12-09T00:43:33.115Z,8.77
2022-12-09T00:46:00.603Z,8.73
2022-12-09T00:48:28.248Z,7.63
2022-12-09T00:50:55.424Z,10.57
2022-12-09T00:53:22.076Z,8.37
2022-12-09T00:55:49.088Z,8.07
2022-12-09T00:58:16.093Z,8.07
2022-12-09T01:00:43.013Z,7.50
2022-12-09T01:03:17.597Z,8.03
2022-12-09T01:05:44.911Z,7.53
2022-12-09T01:08:12.575Z,9.10
2022-12-09T01:10:41.497Z,7.23
2022-12-09T01:13:08.655Z,8.87
2022-12-09T01:15:36.144Z,8.00
2022-12-09T01:18:03.330Z,11.10
2022-12-09T01:20:30.007Z,6.73
2022-12-09T01:22:56.686Z,6.63
2022-12-09T01:25:23.277Z,8.20
2022-12-09T01:27:50.224Z,9.73
2022-12-09T01:30:17.248Z,7.30
2022-12-09T01:32:44.240Z,9.00
2022-12-09T01:35:11.174Z,8.57
2022-12-09T01:37:38.401Z,7.33
2022-12-09T01:40:08.374Z,7.73
2022-12-09T01:42:35.552Z,6.87
2022-12-09T01:45:20.715Z,7.43
2022-12-09T01:47:49.245Z,7.43
2022-12-09T01:50:16.926Z,7.23
2022-12-09T01:52:44.717Z,7.30
2022-12-09T01:55:12.219Z,5.83
2022-12-09T01:57:39.698Z,7.87
2022-12-09T02:00:07.892Z,6.97
2022-12-09T02:02:38.336Z,8.17
2022-12-09T02:05:06.641Z,6.80
2022-12-09T02:07:33.900Z,6.33
2022-12-09T02:10:02.447Z,6.80
2022-12-09T02:12:41.185Z,7.20
2022-12-09T02:17:55.524Z,7.07
2022-12-09T02:20:24.858Z,6.97
2022-12-09T02:23:07.590Z,7.03
2022-12-09T02:25:49.642Z,6.70
2022-12-09T02:28:34.857Z,7.47
2022-12-09T02:31:25.754Z,6.23
2022-12-09T02:33:58.620Z,8.50
2022-12-09T02:36:30.040Z,7.83
2022-12-09T02:38:58.532Z,8.33
2022-12-09T02:41:30.692Z,6.27
2022-12-09T02:44:03.116Z,8.70
2022-12-09T02:46:31.761Z,11.37
2022-12-09T02:48:59.731Z,7.10
2022-12-09T02:51:30.046Z,7.83
2022-12-09T02:54:04.150Z,7.37
2022-12-09T02:56:32.447Z,6.33
2022-12-09T02:58:59.173Z,7.13
2022-12-09T03:01:40.266Z,7.73
2022-12-09T03:04:09.109Z,7.73
2022-12-09T03:06:46.852Z,8.37
2022-12-09T03:09:26.796Z,7.23
2022-12-09T03:11:58.421Z,7.33
2022-12-09T03:14:36.116Z,8.23
2022-12-09T03:17:13.134Z,7.93
2022-12-09T03:19:40.205Z,6.37
2022-12-09T03:22:13.060Z,8.80
2022-12-09T03:24:46.083Z,7.47
2022-12-09T03:27:18.767Z,8.40
2022-12-09T03:29:48.323Z,8.03
2022-12-09T03:32:17.992Z,7.80
2022-12-09T03:34:47.849Z,7.13
2022-12-09T03:37:17.404Z,6.37
2022-12-09T03:39:45.702Z,10.67
2022-12-09T03:42:33.495Z,9.80
2022-12-09T03:45:06.121Z,10.07
2022-12-09T03:47:33.422Z,7.53
2022-12-09T03:50:00.515Z,8.97
2022-12-09T03:52:34.422Z,8.40
2022-12-09T03:55:27.225Z,10.37
2022-12-09T03:57:58.181Z,7.50
2022-12-09T04:00:25.144Z,6.70
2022-12-09T04:02:52.540Z,6.37
2022-12-09T04:05:19.722Z,7.47
2022-12-09T04:07:46.703Z,7.70
2022-12-09T04:10:13.859Z,6.07
2022-12-09T04:12:40.523Z,7.57
2022-12-09T04:15:07.801Z,7.30
2022-12-09T04:22:38.114Z,8.03
2022-12-09T04:25:05.268Z,11.27
2022-12-09T04:27:32.032Z,8.97
2022-12-09T04:29:58.949Z,9.20
2022-12-09T04:32:26.068Z,10.33
2022-12-09T04:34:52.705Z,7.23
2022-12-09T04:37:19.650Z,6.80
2022-12-09T04:39:46.277Z,8.40
2022-12-09T04:42:13.007Z,7.30
2022-12-09T04:47:11.263Z,7.07
2022-12-09T04:49:38.273Z,6.23
2022-12-09T04:52:05.410Z,6.63
2022-12-09T04:59:38.386Z,7.17
2022-12-09T05:02:05.165Z,6.77
2022-12-09T05:04:32.040Z,7.43
2022-12-09T05:06:58.908Z,8.73
2022-12-09T05:09:25.875Z,6.63
2022-12-09T05:11:53.689Z,5.90
2022-12-09T05:14:20.941Z,8.30
2022-12-09T05:16:47.685Z,7.57
2022-12-09T05:19:14.593Z,5.50
2022-12-09T05:21:44.103Z,8.33
2022-12-09T05:24:11.254Z,6.43
2022-12-09T05:26:38.470Z,6.57
2022-12-09T05:29:05.936Z,6.77
2022-12-09T05:31:33.421Z,7.07
2022-12-09T05:34:00.646Z,7.93
2022-12-09T05:38:59.200Z,7.70
2022-12-09T05:41:26.222Z,7.97
2022-12-09T05:43:53.336Z,8.63
2022-12-09T05:46:20.689Z,8.23
2022-12-09T05:48:47.649Z,8.10
2022-12-09T05:51:32.922Z,6.83
2022-12-09T05:54:04.988Z,9.93
2022-12-09T05:56:33.528Z,9.30
2022-12-09T05:59:00.820Z,8.27
2022-12-09T06:01:27.939Z,12.17
2022-12-09T06:03:55.429Z,7.63
2022-12-09T06:06:27.018Z,6.97
2022-12-09T06:08:59.875Z,7.07
2022-12-09T06:11:27.906Z,7.23
2022-12-09T06:13:55.464Z,6.13
2022-12-09T06:16:23.394Z,8.37
2022-12-09T06:18:51.566Z,9.60
2022-12-09T06:21:20.013Z,7.20
2022-12-09T06:23:47.630Z,6.83
2022-12-09T06:26:22.291Z,8.43
2022-12-09T06:28:49.539Z,9.43
2022-12-09T06:33:57.542Z,7.70
2022-12-09T06:36:27.842Z,8.40
2022-12-09T06:41:26.389Z,7.40
2022-12-09T06:43:53.862Z,7.93
2022-12-09T06:46:26.030Z,10.07
2022-12-09T06:48:54.818Z,8.43
2022-12-09T06:51:23.037Z,8.00
2022-12-09T06:53:50.119Z,9.30
2022-12-09T06:56:17.704Z,7.83
2022-12-09T06:58:46.113Z,7.43
2022-12-09T07:01:18.525Z,8.23
2022-12-09T07:03:50.752Z,11.83
2022-12-09T07:06:29.923Z,7.10
2022-12-09T07:08:59.076Z,7.90
2022-12-09T07:13:57.750Z,7.17
2022-12-09T07:16:25.229Z,7.70
2022-12-09T07:18:52.783Z,6.93
2022-12-09T07:21:22.772Z,7.17
2022-12-09T07:23:50.069Z,9.03
2022-12-09T07:26:18.579Z,7.77
2022-12-09T07:28:47.449Z,7.77
2022-12-09T07:31:25.479Z,11.63
2022-12-09T07:33:54.386Z,9.27
2022-12-09T07:36:22.774Z,11.97
2022-12-09T07:39:05.474Z,9.17
2022-12-09T07:41:32.557Z,20.67
2022-12-09T07:43:59.809Z,10.73
2022-12-09T07:46:27.869Z,17.80
2022-12-09T07:48:56.465Z,11.43
2022-12-09T07:51:25.161Z,10.43
2022-12-09T07:53:52.562Z,92.33
2022-12-09T07:56:19.742Z,52.03
2022-12-09T07:58:48.120Z,14.47
2022-12-09T08:01:18.822Z,10.83
2022-12-09T08:03:47.374Z,9.67
2022-12-09T08:06:17.180Z,8.83
2022-12-09T08:08:44.659Z,11.03
2022-12-09T08:11:16.234Z,12.70
2022-12-09T08:13:43.268Z,10.93
2022-12-09T08:16:12.401Z,25.20
2022-12-09T08:18:40.250Z,38.20
2022-12-09T08:23:48.705Z,10.57
2022-12-09T08:26:17.743Z,14.30
2022-12-09T08:28:44.661Z,12.10
2022-12-09T08:31:14.625Z,15.40
2022-12-09T08:33:41.871Z,11.53
2022-12-09T08:36:21.019Z,11.60
2022-12-09T08:38:48.139Z,11.03
2022-12-09T08:41:21.527Z,12.30
2022-12-09T08:43:49.226Z,10.73
2022-12-09T08:46:16.444Z,9.53
2022-12-09T08:48:43.748Z,10.73
2022-12-09T08:51:12.231Z,15.47
2022-12-09T08:53:39.939Z,16.37
2022-12-09T08:56:14.815Z,12.53
2022-12-09T08:58:43.213Z,12.63
2022-12-09T09:01:26.828Z,13.20
2022-12-09T09:03:54.026Z,13.20
2022-12-09T09:06:21.479Z,13.60
2022-12-09T09:08:49.041Z,12.47
2022-12-09T09:11:19.713Z,10.10
2022-12-09T09:13:48.940Z,12.93
2022-12-09T09:16:19.244Z,10.53
2022-12-09T09:18:46.756Z,10.43
2022-12-09T09:21:16.092Z,11.40
2022-12-09T09:23:43.989Z,9.17
2022-12-09T09:26:13.255Z,11.97
2022-12-09T09:28:40.712Z,12.07
2022-12-09T09:31:09.375Z,11.77
2022-12-09T09:33:37.288Z,11.67
2022-12-09T09:36:10.166Z,11.13
2022-12-09T09:38:38.518Z,11.23
2022-12-09T09:41:34.866Z,13.93
2022-12-09T09:44:02.230Z,11.10
2022-12-09T09:46:40.015Z,11.63
2022-12-09T09:49:13.308Z,12.90
2022-12-09T09:51:40.169Z,11.87
2022-12-09T09:54:10.895Z,18.77
2022-12-09T09:56:47.941Z,12.37
2022-12-09T09:59:37.689Z,10.80
2022-12-09T10:02:19.477Z,13.30
2022-12-09T10:05:03.489Z,9.97
2022-12-09T10:07:57.293Z,10.70
2022-12-09T10:10:41.274Z,11.73
2022-12-09T10:13:29.641Z,17.97
2022-12-09T10:16:17.677Z,13.77
2022-12-09T10:18:53.650Z,16.10
2022-12-09T10:21:21.799Z,12.17
2022-12-09T10:23:50.693Z,12.10
2022-12-09T10:26:25.900Z,13.87
2022-12-09T10:29:18.695Z,12.83
2022-12-09T10:31:45.972Z,11.77
2022-12-09T10:34:14.360Z,10.80
2022-12-09T10:36:45.307Z,14.07
2022-12-09T10:39:19.070Z,18.10
2022-12-09T10:42:10.581Z,15.87
2022-12-09T10:44:37.561Z,13.50
2022-12-09T10:47:08.006Z,16.03
2022-12-09T10:49:36.214Z,17.47
2022-12-09T10:52:05.421Z,12.00
2022-12-09T10:54:37.188Z,14.00
2022-12-09T10:57:13.006Z,16.33
2022-12-09T10:59:42.498Z,14.23
2022-12-09T11:02:09.840Z,14.17
2022-12-09T11:04:37.210Z,13.70
2022-12-09T11:07:13.249Z,14.17
2022-12-09T11:09:45.821Z,13.97
2022-12-09T11:12:19.222Z,12.80
2022-12-09T11:14:52.547Z,12.47
2022-12-09T11:17:28.401Z,13.03
2022-12-09T11:20:17.646Z,12.97
2022-12-09T11:22:46.173Z,12.83
2022-12-09T11:25:16.625Z,15.63
2022-12-09T11:27:52.176Z,16.00
2022-12-09T11:30:21.903Z,12.00
2022-12-09T11:32:56.989Z,16.53
2022-12-09T11:35:31.235Z,13.40
2022-12-09T11:38:01.361Z,15.57
2022-12-09T11:40:28.961Z,15.57
2022-12-09T11:42:57.256Z,15.33
2022-12-09T11:45:33.795Z,14.10
2022-12-09T11:48:31.938Z,13.87
2022-12-09T11:51:01.934Z,16.80
2022-12-09T11:53:31.430Z,15.33
2022-12-09T11:56:16.014Z,14.87
2022-12-09T11:58:48.480Z,13.10
2022-12-09T12:01:28.928Z,17.80
2022-12-09T12:04:01.674Z,18.73
2022-12-09T12:06:39.952Z,17.40
2022-12-09T12:09:16.160Z,19.07
2022-12-09T12:11:51.715Z,15.50
2022-12-09T12:14:28.156Z,14.83
2022-12-09T12:17:14.299Z,14.37
2022-12-09T12:19:43.668Z,16.37
2022-12-09T12:22:35.044Z,13.37
2022-12-09T12:25:22.205Z,15.23
2022-12-09T12:28:26.395Z,17.60
2022-12-09T12:31:19.953Z,15.20
2022-12-09T12:34:23.509Z,15.43
2022-12-09T12:36:53.513Z,13.73
2022-12-09T12:39:26.101Z,33.83
2022-12-09T12:42:11.091Z,16.93
2022-12-09T12:48:15.897Z,15.27
2022-12-09T12:50:48.429Z,16.73
2022-12-09T12:53:33.784Z,17.60
2022-12-09T12:56:15.711Z,14.03
2022-12-09T12:59:00.300Z,14.57
2022-12-09T13:02:16.032Z,14.43
2022-12-09T13:04:54.749Z,13.20
2022-12-09T13:07:48.467Z,15.10
2022-12-09T13:10:39.824Z,17.97
2022-12-09T13:13:34.346Z,17.30
2022-12-09T13:16:07.143Z,17.03
2022-12-09T13:18:36.941Z,18.27
2022-12-09T13:24:08.800Z,16.87
2022-12-09T13:26:53.402Z,17.87
2022-12-09T13:29:47.640Z,17.33
2022-12-09T13:32:26.804Z,16.70
2022-12-09T13:37:54.961Z,26.20
2022-12-09T13:40:21.557Z,21.27
2022-12-09T13:42:58.996Z,16.97
2022-12-09T13:45:25.647Z,16.50
2022-12-09T13:47:56.393Z,17.17
2022-12-09T13:50:27.718Z,18.90
2022-12-09T13:52:57.922Z,17.47
2022-12-09T13:55:30.484Z,17.73
2022-12-09T13:58:12.654Z,19.03
2022-12-09T14:00:43.578Z,15.17
2022-12-09T14:03:30.575Z,17.73
2022-12-09T14:06:00.647Z,18.83
2022-12-09T14:08:33.697Z,18.73
2022-12-09T14:11:38.537Z,18.97
2022-12-09T14:14:23.496Z,19.80
2022-12-09T14:16:54.794Z,21.30
2022-12-09T14:19:24.125Z,24.40
2022-12-09T14:22:22.316Z,22.37
2022-12-09T14:24:52.928Z,25.43
2022-12-09T14:27:25.518Z,21.70
2022-12-09T14:29:52.113Z,20.17
2022-12-09T14:32:31.977Z,15.97
2022-12-09T14:35:10.504Z,22.87
2022-12-09T14:37:42.531Z,19.70
2022-12-09T14:40:14.835Z,22.23
2022-12-09T14:43:10.145Z,23.20
2022-12-09T14:46:00.574Z,23.27
2022-12-09T14:48:31.387Z,21.00
2022-12-09T14:51:20.155Z,20.27
2022-12-09T14:53:57.698Z,20.33
2022-12-09T14:56:26.118Z,24.53
2022-12-09T14:59:18.758Z,22.63
2022-12-09T15:01:54.444Z,22.30
2022-12-09T15:04:36.229Z,23.57
2022-12-09T15:07:20.392Z,22.43
2022-12-09T15:12:37.168Z,23.47
2022-12-09T15:15:23.438Z,24.20
2022-12-09T15:17:58.029Z,27.10
2022-12-09T15:20:27.621Z,23.07
2022-12-09T15:23:07.270Z,20.70
2022-12-09T15:25:45.388Z,23.70
2022-12-09T15:28:24.515Z,25.87
2022-12-09T15:33:42.525Z,26.60
2022-12-09T15:36:43.096Z,23.40
2022-12-09T15:39:18.392Z,27.43
2022-12-09T15:42:06.551Z,23.00
2022-12-09T15:44:36.142Z,26.07
2022-12-09T15:47:10.305Z,25.60
2022-12-09T15:49:45.240Z,28.00
2022-12-09T15:52:14.404Z,23.93
2022-12-09T15:54:44.474Z,25.57
2022-12-09T15:57:17.597Z,27.23
2022-12-09T15:59:55.512Z,26.40
2022-12-09T16:02:27.665Z,26.60
2022-12-09T16:04:58.154Z,27.67
2022-12-09T16:07:25.404Z,30.73
2022-12-09T16:10:12.806Z,27.10
2022-12-09T16:12:41.031Z,28.07
2022-12-09T16:15:11.406Z,29.80
2022-12-09T16:17:53.473Z,29.87
2022-12-09T16:23:25.020Z,27.97
2022-12-09T16:25:52.137Z,32.43
2022-12-09T16:28:27.565Z,35.27
2022-12-09T16:31:04.485Z,31.80
2022-12-09T16:33:37.747Z,29.10
2022-12-09T16:36:07.207Z,32.30
2022-12-09T16:38:38.854Z,31.00
2022-12-09T16:41:08.962Z,34.47
2022-12-09T16:46:14.111Z,32.17
2022-12-09T16:48:42.639Z,31.37
2022-12-09T16:51:21.133Z,31.27
2022-12-09T16:53:52.432Z,33.53
2022-12-09T16:56:20.436Z,32.07
2022-12-09T16:58:47.583Z,36.00
2022-12-09T17:01:16.707Z,34.50
2022-12-09T17:03:45.039Z,29.80
2022-12-09T17:06:17.220Z,34.13
2022-12-09T17:08:44.930Z,30.43
2022-12-09T17:11:12.277Z,28.67
2022-12-09T17:13:39.552Z,31.80
2022-12-09T17:16:07.141Z,28.23
2022-12-09T17:18:34.619Z,32.50
2022-12-09T17:21:04.527Z,32.93
2022-12-09T17:23:37.698Z,33.47
2022-12-09T17:26:08.015Z,30.83
2022-12-09T17:28:36.037Z,31.27
2022-12-09T17:31:11.215Z,30.90
2022-12-09T17:33:38.626Z,30.17
2022-12-09T17:36:06.159Z,28.90
2022-12-09T17:41:10.249Z,29.73
2022-12-09T17:43:37.480Z,33.60
2022-12-09T17:46:06.062Z,29.73
2022-12-09T17:48:34.547Z,30.13
2022-12-09T17:51:09.164Z,28.87
2022-12-09T17:53:37.509Z,28.30
2022-12-09T17:56:16.714Z,30.73
2022-12-09T18:04:04.674Z,31.20
2022-12-09T18:06:35.252Z,27.80
2022-12-09T18:09:04.484Z,29.17
2022-12-09T18:11:31.883Z,29.73
2022-12-09T18:13:59.297Z,41.93
2022-12-09T18:16:26.044Z,42.87
2022-12-09T18:18:53.309Z,129.20
2022-12-09T18:21:20.392Z,95.87
2022-12-09T18:23:48.525Z,38.23
2022-12-09T18:26:17.707Z,32.17
2022-12-09T18:28:44.626Z,30.10
2022-12-09T18:31:19.323Z,30.33
2022-12-09T18:33:46.631Z,29.60
2022-12-09T18:36:18.712Z,32.97
2022-12-09T18:38:45.455Z,29.50
2022-12-09T18:41:14.071Z,29.07
2022-12-09T18:43:43.181Z,30.73
2022-12-09T18:46:13.304Z,31.53
2022-12-09T18:48:40.885Z,28.60
2022-12-09T18:51:20.908Z,28.07
2022-12-09T18:53:48.737Z,33.53
2022-12-09T18:56:16.782Z,28.33
2022-12-09T18:59:05.302Z,31.30
2022-12-09T19:01:31.807Z,33.00
2022-12-09T19:04:03.775Z,36.50
2022-12-09T19:06:35.686Z,37.70
2022-12-09T19:11:41.669Z,34.00
2022-12-09T19:14:09.173Z,33.33
2022-12-09T19:16:36.168Z,97.73
2022-12-09T19:19:09.139Z,35.40
2022-12-09T19:21:37.326Z,36.97
2022-12-09T19:24:04.205Z,31.03
2022-12-09T19:26:33.122Z,30.87
2022-12-09T19:29:02.256Z,32.07
2022-12-09T19:31:38.644Z,33.07
2022-12-09T19:34:10.767Z,35.70
2022-12-09T19:36:37.459Z,33.77
2022-12-09T19:39:06.447Z,33.20
2022-12-09T19:41:33.118Z,36.10
2022-12-09T19:44:01.137Z,34.87
2022-12-09T19:46:28.745Z,39.50
2022-12-09T19:48:57.243Z,34.03
2022-12-09T19:51:25.275Z,33.30
2022-12-09T19:53:56.606Z,30.17
2022-12-09T19:56:24.283Z,32.60
2022-12-09T19:58:52.699Z,32.53
2022-12-09T20:01:22.909Z,32.10
2022-12-09T20:03:56.218Z,30.80
2022-12-09T20:06:23.011Z,33.50
2022-12-09T20:08:49.717Z,30.13
2022-12-09T20:11:19.925Z,31.03
2022-12-09T20:13:47.390Z,30.17
2022-12-09T20:16:18.373Z,29.20
2022-12-09T20:18:47.798Z,31.50
2022-12-09T20:21:16.555Z,27.53
2022-12-09T20:23:44.208Z,30.50
2022-12-09T20:26:20.376Z,28.93
2022-12-09T20:28:48.665Z,30.70
2022-12-09T20:31:21.011Z,29.30
2022-12-09T20:33:48.713Z,27.80
2022-12-09T20:36:19.707Z,28.03
2022-12-09T20:38:54.691Z,31.17
2022-12-09T20:41:22.479Z,29.23
2022-12-09T20:43:50.841Z,33.40
2022-12-09T20:46:20.598Z,29.70
2022-12-09T20:48:48.207Z,29.10
2022-12-09T20:51:41.531Z,29.60
2022-12-09T20:54:10.340Z,32.10
2022-12-09T20:56:37.634Z,30.00
2022-12-09T20:59:04.898Z,28.40
2022-12-09T21:01:34.412Z,28.80
2022-12-09T21:04:02.513Z,31.23
2022-12-09T21:06:34.392Z,26.60
2022-12-09T21:09:06.268Z,30.73
2022-12-09T21:11:33.077Z,31.93
2022-12-09T21:14:02.233Z,27.60
2022-12-09T21:16:34.828Z,28.93
2022-12-09T21:19:05.378Z,32.30
2022-12-09T21:21:35.340Z,30.47
2022-12-09T21:24:02.801Z,28.60
2022-12-09T21:29:01.769Z,31.90
2022-12-09T21:31:32.067Z,29.87
2022-12-09T21:34:03.799Z,28.07
2022-12-09T21:36:33.415Z,27.93
2022-12-09T21:39:00.705Z,27.17
2022-12-09T21:41:31.071Z,28.30
2022-12-09T21:43:58.159Z,27.87
2022-12-09T21:46:30.089Z,28.33
2022-12-09T21:49:03.350Z,27.67
2022-12-09T21:51:31.660Z,28.43
2022-12-09T21:53:58.304Z,29.23
2022-12-09T21:56:27.752Z,28.37
2022-12-09T21:58:57.348Z,27.83
2022-12-09T22:01:30.071Z,28.67
2022-12-09T22:03:58.452Z,27.10
2022-12-09T22:06:25.791Z,27.53
2022-12-09T22:08:52.441Z,29.80
2022-12-09T22:11:25.067Z,29.23
2022-12-09T22:13:52.747Z,31.53
2022-12-09T22:16:22.878Z,30.93
2022-12-09T22:18:50.660Z,31.27
2022-12-09T22:21:25.173Z,30.90
2022-12-09T22:23:55.003Z,29.60
2022-12-09T22:26:22.958Z,29.80
2022-12-09T22:28:50.282Z,27.97
2022-12-09T22:31:25.895Z,27.93
2022-12-09T22:33:54.661Z,30.03
2022-12-09T22:36:22.501Z,28.80
2022-12-09T22:38:49.776Z,29.27
2022-12-09T22:41:19.883Z,30.63
2022-12-09T22:43:48.363Z,24.63
2022-12-09T22:46:17.594Z,24.03
2022-12-09T22:48:44.485Z,24.87
2022-12-09T22:51:17.391Z,22.53
2022-12-09T22:53:44.647Z,23.53
2022-12-09T22:56:12.557Z,28.00
2022-12-09T22:58:39.186Z,27.40
2022-12-09T23:01:10.222Z,25.77
2022-12-09T23:03:37.357Z,25.77
2022-12-09T23:06:04.212Z,24.20
2022-12-09T23:08:30.903Z,24.13
2022-12-09T23:11:05.769Z,24.30
2022-12-09T23:13:36.208Z,23.43
2022-12-09T23:16:09.338Z,24.43
2022-12-09T23:18:36.145Z,23.50
2022-12-09T23:21:11.421Z,21.27
2022-12-09T23:23:38.633Z,23.43
2022-12-09T23:26:11.371Z,24.50
2022-12-09T23:28:42.797Z,22.87
2022-12-09T23:31:12.132Z,23.23
2022-12-09T23:33:40.081Z,22.17
2022-12-09T23:36:08.020Z,26.57
2022-12-09T23:38:35.164Z,23.87
2022-12-09T23:41:02.040Z,24.43
2022-12-09T23:43:33.088Z,22.77
2022-12-09T23:46:01.715Z,23.63
2022-12-09T23:48:28.441Z,23.13
2022-12-09T23:50:55.534Z,23.20
2022-12-09T23:53:22.603Z,25.53
2022-12-09T23:55:49.452Z,23.00
2022-12-09T23:58:19.244Z,26.13
